createdAt,value
2024-01-05T00:00:03.641Z,60.65
2024-01-05T00:01:03.690Z,59.66
2024-01-05T00:02:03.536Z,59.95
2024-01-05T00:03:03.554Z,57.55
2024-01-05T00:04:03.591Z,57.88
2024-01-05T00:05:03.515Z,59.37
2024-01-05T00:06:03.580Z,59.76
2024-01-05T00:07:03.486Z,61.29
2024-01-05T00:08:03.439Z,59.79
2024-01-05T00:09:03.452Z,60.25
2024-01-05T00:10:03.419Z,58.18
2024-01-05T00:11:03.402Z,58.23
2024-01-05T00:13:03.374Z,59.85
2024-01-05T00:14:03.355Z,58.29
2024-01-05T00:15:03.398Z,57.35
2024-01-05T00:16:03.329Z,59.61
2024-01-05T00:17:03.328Z,58.55
2024-01-05T00:18:03.377Z,59.68
2024-01-05T00:19:03.345Z,58.88
2024-01-05T00:20:03.318Z,60.29
2024-01-05T00:21:03.294Z,58.28
2024-01-05T00:22:03.245Z,59.40
2024-01-05T00:23:03.222Z,59.06
2024-01-05T00:24:03.240Z,57.39
2024-01-05T00:25:03.205Z,60.83
2024-01-05T00:26:03.195Z,59.00
2024-01-05T00:27:03.191Z,58.07
2024-01-05T00:28:03.140Z,58.62
2024-01-05T00:29:03.126Z,59.05
2024-01-05T00:30:03.159Z,59.07
2024-01-05T00:31:03.203Z,61.11
2024-01-05T00:32:03.081Z,58.20
2024-01-05T00:33:03.174Z,58.08
2024-01-05T00:34:03.140Z,58.44
2024-01-05T00:35:03.009Z,61.28
2024-01-05T00:36:03.034Z,59.23
2024-01-05T00:37:02.986Z,58.15
2024-01-05T00:38:02.951Z,57.94
2024-01-05T00:39:02.913Z,60.24
2024-01-05T00:40:02.889Z,57.79
2024-01-05T00:41:02.866Z,57.58
2024-01-05T00:42:02.870Z,59.20
2024-01-05T00:43:02.822Z,60.57
2024-01-05T00:44:02.810Z,57.98
2024-01-05T00:45:02.833Z,58.66
2024-01-05T00:46:02.771Z,58.89
2024-01-05T00:47:02.735Z,58.61
2024-01-05T00:48:02.859Z,58.93
2024-01-05T00:49:02.720Z,58.76
2024-01-05T00:50:02.687Z,59.72
2024-01-05T00:51:02.686Z,60.41
2024-01-05T00:52:02.694Z,58.31
2024-01-05T00:53:02.633Z,58.44
2024-01-05T00:54:02.635Z,58.36
2024-01-05T00:55:02.613Z,58.98
2024-01-05T00:56:02.601Z,59.88
2024-01-05T00:57:02.632Z,59.27
2024-01-05T00:58:02.594Z,57.08
2024-01-05T00:59:02.579Z,58.65
2024-01-05T01:00:02.618Z,58.11
2024-01-05T01:01:02.619Z,59.12
2024-01-05T01:02:02.536Z,57.90
2024-01-05T01:03:02.637Z,59.64
2024-01-05T01:04:02.671Z,60.19
2024-01-05T01:05:02.542Z,58.89
2024-01-05T01:06:02.539Z,58.05
2024-01-05T01:07:02.491Z,61.54
2024-01-05T01:08:02.476Z,57.04
2024-01-05T01:09:02.481Z,59.00
2024-01-05T01:10:02.448Z,61.18
2024-01-05T01:11:02.450Z,58.33
2024-01-05T01:12:02.478Z,58.25
2024-01-05T01:13:02.438Z,61.25
2024-01-05T01:14:02.478Z,60.22
2024-01-05T01:15:02.466Z,58.44
2024-01-05T01:16:02.459Z,56.89
2024-01-05T01:17:02.423Z,59.47
2024-01-05T01:18:02.502Z,57.48
2024-01-05T01:19:02.750Z,59.14
2024-01-05T01:20:02.388Z,57.08
2024-01-05T01:21:02.429Z,57.13
2024-01-05T01:22:02.387Z,60.19
2024-01-05T01:23:02.401Z,61.63
2024-01-05T01:24:02.517Z,59.25
2024-01-05T01:25:02.406Z,59.53
2024-01-05T01:26:02.416Z,58.26
2024-01-05T01:27:02.403Z,59.36
2024-01-05T01:28:02.397Z,57.20
2024-01-05T01:29:02.379Z,60.46
2024-01-05T01:30:02.575Z,58.87
2024-01-05T01:31:02.471Z,59.84
2024-01-05T01:32:02.380Z,59.13
2024-01-05T01:33:02.450Z,60.42
2024-01-05T01:34:02.488Z,59.62
2024-01-05T01:35:02.457Z,61.26
2024-01-05T01:36:02.581Z,59.38
2024-01-05T01:37:02.501Z,61.06
2024-01-05T01:38:02.547Z,57.16
2024-01-05T01:39:02.607Z,61.54
2024-01-05T01:40:02.574Z,58.55
2024-01-05T01:41:02.604Z,56.18
2024-01-05T01:42:02.719Z,58.38
2024-01-05T01:43:02.744Z,57.77
2024-01-05T01:44:02.680Z,59.65
2024-01-05T01:45:02.704Z,59.85
2024-01-05T01:46:02.651Z,59.60
2024-01-05T01:47:02.639Z,58.37
2024-01-05T01:48:02.716Z,56.70
2024-01-05T01:49:02.750Z,58.92
2024-01-05T01:50:02.648Z,59.72
2024-01-05T01:51:02.604Z,59.12
2024-01-05T01:52:02.588Z,57.42
2024-01-05T01:53:02.583Z,62.83
2024-01-05T01:54:02.610Z,57.62
2024-01-05T01:55:02.545Z,59.74
2024-01-05T01:56:02.519Z,58.88
2024-01-05T01:57:02.524Z,59.61
2024-01-05T01:58:02.499Z,61.62
2024-01-05T01:59:02.549Z,60.08
2024-01-05T02:00:02.628Z,56.59
2024-01-05T02:01:02.493Z,57.73
2024-01-05T02:02:02.485Z,62.70
2024-01-05T02:03:02.582Z,59.03
2024-01-05T02:04:02.595Z,60.69
2024-01-05T02:05:02.592Z,60.99
2024-01-05T02:06:02.555Z,58.91
2024-01-05T02:07:02.495Z,61.34
2024-01-05T02:08:02.501Z,58.79
2024-01-05T02:09:02.580Z,62.37
2024-01-05T02:10:02.517Z,55.88
2024-01-05T02:11:02.482Z,60.15
2024-01-05T02:12:02.489Z,59.92
2024-01-05T02:13:02.426Z,58.83
2024-01-05T02:14:02.412Z,59.93
2024-01-05T02:15:02.476Z,59.53
2024-01-05T02:16:02.441Z,60.86
2024-01-05T02:17:02.389Z,62.71
2024-01-05T02:18:02.532Z,61.14
2024-01-05T02:19:02.521Z,58.28
2024-01-05T02:20:02.332Z,59.21
2024-01-05T02:21:02.463Z,58.71
2024-01-05T02:22:02.326Z,61.54
2024-01-05T02:23:02.292Z,59.20
2024-01-05T02:24:02.463Z,58.56
2024-01-05T02:25:02.362Z,57.95
2024-01-05T02:26:02.501Z,59.08
2024-01-05T02:27:02.506Z,61.22
2024-01-05T02:28:02.343Z,60.12
2024-01-05T02:29:02.345Z,61.07
2024-01-05T02:30:02.393Z,58.67
2024-01-05T02:31:02.611Z,59.09
2024-01-05T02:32:02.357Z,60.13
2024-01-05T02:33:02.440Z,59.84
2024-01-05T02:34:02.412Z,59.33
2024-01-05T02:35:02.455Z,59.40
2024-01-05T02:36:02.362Z,58.04
2024-01-05T02:37:02.314Z,61.44
2024-01-05T02:38:02.316Z,61.35
2024-01-05T02:39:02.333Z,58.48
2024-01-05T02:40:02.301Z,60.12
2024-01-05T02:41:02.283Z,60.37
2024-01-05T02:42:02.330Z,59.36
2024-01-05T02:43:02.268Z,59.57
2024-01-05T02:44:02.268Z,59.97
2024-01-05T02:45:02.283Z,58.71
2024-01-05T02:46:02.233Z,59.07
2024-01-05T02:47:02.224Z,59.09
2024-01-05T02:48:02.631Z,58.92
2024-01-05T02:49:02.346Z,61.36
2024-01-05T02:50:02.183Z,58.71
2024-01-05T02:51:02.243Z,60.12
2024-01-05T02:52:02.152Z,58.84
2024-01-05T02:53:02.158Z,57.60
2024-01-05T02:54:02.189Z,59.41
2024-01-05T02:55:02.128Z,60.99
2024-01-05T02:56:02.119Z,57.27
2024-01-05T02:57:02.136Z,58.27
2024-01-05T02:58:02.090Z,59.19
2024-01-05T02:59:02.080Z,60.62
2024-01-05T03:00:02.126Z,59.63
2024-01-05T03:01:02.147Z,57.69
2024-01-05T03:02:02.057Z,60.62
2024-01-05T03:03:02.062Z,59.85
2024-01-05T03:04:02.475Z,60.20
2024-01-05T03:05:02.075Z,61.27
2024-01-05T03:06:02.078Z,60.14
2024-01-05T03:07:02.050Z,61.07
2024-01-05T03:08:02.061Z,58.95
2024-01-05T03:09:02.096Z,59.80
2024-01-05T03:10:02.044Z,60.74
2024-01-05T03:11:02.031Z,59.18
2024-01-05T03:12:02.080Z,59.31
2024-01-05T03:13:02.021Z,59.72
2024-01-05T03:14:01.998Z,59.62
2024-01-05T03:15:02.058Z,60.33
2024-01-05T03:16:01.974Z,60.04
2024-01-05T03:17:01.980Z,59.43
2024-01-05T03:18:02.292Z,60.88
2024-01-05T03:19:02.232Z,61.77
2024-01-05T03:20:02.296Z,62.26
2024-01-05T03:21:02.092Z,57.38
2024-01-05T03:22:02.046Z,61.02
2024-01-05T03:23:02.028Z,60.82
2024-01-05T03:24:02.081Z,58.71
2024-01-05T03:25:02.049Z,61.34
2024-01-05T03:26:02.052Z,61.99
2024-01-05T03:27:02.056Z,59.08
2024-01-05T03:28:01.994Z,60.84
2024-01-05T03:29:02.017Z,60.21
2024-01-05T03:30:02.139Z,59.50
2024-01-05T03:31:02.184Z,59.50
2024-01-05T03:32:01.997Z,62.51
2024-01-05T03:33:02.262Z,59.48
2024-01-05T03:34:02.299Z,61.37
2024-01-05T03:35:02.030Z,59.05
2024-01-05T03:36:02.194Z,59.64
2024-01-05T03:37:02.110Z,59.18
2024-01-05T03:38:02.096Z,62.71
2024-01-05T03:39:02.287Z,61.62
2024-01-05T03:40:02.090Z,58.63
2024-01-05T03:41:02.059Z,57.58
2024-01-05T03:42:02.093Z,59.94
2024-01-05T03:43:02.032Z,59.66
2024-01-05T03:44:02.073Z,60.94
2024-01-05T03:45:02.276Z,61.19
2024-01-05T03:46:02.002Z,60.16
2024-01-05T03:47:02.001Z,56.67
2024-01-05T03:48:02.320Z,56.47
2024-01-05T03:49:02.199Z,59.04
2024-01-05T03:50:02.099Z,60.94
2024-01-05T03:51:02.090Z,60.17
2024-01-05T03:52:01.996Z,60.16
2024-01-05T03:53:02.058Z,56.78
2024-01-05T03:54:02.077Z,60.74
2024-01-05T03:55:02.030Z,59.78
2024-01-05T03:56:02.014Z,60.16
2024-01-05T03:57:02.036Z,58.69
2024-01-05T03:58:02.033Z,62.01
2024-01-05T03:59:02.036Z,58.47
2024-01-05T04:00:02.042Z,57.89
2024-01-05T04:01:02.064Z,60.96
2024-01-05T04:02:02.076Z,61.06
2024-01-05T04:03:02.241Z,57.42
2024-01-05T04:04:02.247Z,58.70
2024-01-05T04:05:02.182Z,60.19
2024-01-05T04:06:02.152Z,58.99
2024-01-05T04:07:02.065Z,59.92
2024-01-05T04:08:02.068Z,60.58
2024-01-05T04:09:02.163Z,61.44
2024-01-05T04:10:02.168Z,58.08
2024-01-05T04:11:02.062Z,58.79
2024-01-05T04:12:02.161Z,58.80
2024-01-05T04:13:02.075Z,57.83
2024-01-05T04:14:02.062Z,59.54
2024-01-05T04:15:02.095Z,58.12
2024-01-05T04:16:02.049Z,58.58
2024-01-05T04:17:02.106Z,56.15
2024-01-05T04:18:02.178Z,58.80
2024-01-05T04:19:02.147Z,58.09
2024-01-05T04:20:02.124Z,57.20
2024-01-05T04:21:02.145Z,60.00
2024-01-05T04:22:02.141Z,59.88
2024-01-05T04:23:01.987Z,59.98
2024-01-05T04:24:02.042Z,58.37
2024-01-05T04:25:02.199Z,58.41
2024-01-05T04:26:02.248Z,62.01
2024-01-05T04:27:02.279Z,58.27
2024-01-05T04:28:02.153Z,59.82
2024-01-05T04:29:02.164Z,58.38
2024-01-05T04:30:02.345Z,60.34
2024-01-05T04:31:02.359Z,59.13
2024-01-05T04:32:02.180Z,58.21
2024-01-05T04:33:02.179Z,60.44
2024-01-05T04:34:02.809Z,59.75
2024-01-05T04:35:02.160Z,61.38
2024-01-05T04:36:02.242Z,59.38
2024-01-05T04:37:02.249Z,61.14
2024-01-05T04:38:02.285Z,59.57
2024-01-05T04:39:02.402Z,59.74
2024-01-05T04:40:02.369Z,58.16
2024-01-05T04:41:02.358Z,59.28
2024-01-05T04:42:02.494Z,60.75
2024-01-05T04:43:02.337Z,59.09
2024-01-05T04:44:02.343Z,60.35
2024-01-05T04:45:02.452Z,61.50
2024-01-05T04:46:02.348Z,59.16
2024-01-05T04:47:02.299Z,59.93
2024-01-05T04:48:02.483Z,60.29
2024-01-05T04:49:02.404Z,60.35
2024-01-05T04:50:02.261Z,60.19
2024-01-05T04:51:02.290Z,57.58
2024-01-05T04:52:02.322Z,58.99
2024-01-05T04:53:02.311Z,60.76
2024-01-05T04:54:02.270Z,58.18
2024-01-05T04:55:02.323Z,57.50
2024-01-05T04:56:02.284Z,57.09
2024-01-05T04:57:02.297Z,56.93
2024-01-05T04:58:02.310Z,57.41
2024-01-05T04:59:02.300Z,58.01
2024-01-05T05:00:02.366Z,59.63
2024-01-05T05:01:02.307Z,57.76
2024-01-05T05:02:02.241Z,57.59
2024-01-05T05:03:02.422Z,60.63
2024-01-05T05:04:02.311Z,59.96
2024-01-05T05:05:02.258Z,59.58
2024-01-05T05:06:02.351Z,58.17
2024-01-05T05:07:02.223Z,59.72
2024-01-05T05:08:02.275Z,58.34
2024-01-05T05:09:02.330Z,59.93
2024-01-05T05:10:02.351Z,60.06
2024-01-05T05:11:02.205Z,59.22
2024-01-05T05:12:09.631Z,50.00
2024-01-05T05:13:09.588Z,50.00
2024-01-05T05:14:09.575Z,50.00
2024-01-05T05:15:09.596Z,50.00
2024-01-05T05:16:09.537Z,50.00
2024-01-05T05:17:09.527Z,51.03
2024-01-05T05:18:09.621Z,52.76
2024-01-05T05:19:09.659Z,51.45
2024-01-05T05:20:09.481Z,54.72
2024-01-05T05:21:09.493Z,53.34
2024-01-05T05:22:09.459Z,51.26
2024-01-05T05:23:09.444Z,54.53
2024-01-05T05:24:09.441Z,53.48
2024-01-05T05:25:09.396Z,51.36
2024-01-05T05:26:09.386Z,51.11
2024-01-05T05:27:09.393Z,52.10
2024-01-05T05:28:09.376Z,53.37
2024-01-05T05:29:10.216Z,52.90
2024-01-05T05:30:09.436Z,52.15
2024-01-05T05:31:09.444Z,53.48
2024-01-05T05:32:09.304Z,52.96
2024-01-05T05:33:09.372Z,51.02
2024-01-05T05:34:09.394Z,51.99
2024-01-05T05:35:09.259Z,51.63
2024-01-05T05:36:09.269Z,51.33
2024-01-05T05:37:09.251Z,52.25
2024-01-05T05:38:09.208Z,52.26
2024-01-05T05:39:09.238Z,53.72
2024-01-05T05:40:09.193Z,54.14
2024-01-05T05:41:09.174Z,51.30
2024-01-05T05:42:09.190Z,52.72
2024-01-05T05:43:09.148Z,51.86
2024-01-05T05:44:09.146Z,54.01
2024-01-05T05:45:09.188Z,51.48
2024-01-05T05:46:09.112Z,54.47
2024-01-05T05:47:09.104Z,54.24
2024-01-05T05:48:09.192Z,55.14
2024-01-05T05:49:09.125Z,53.69
2024-01-05T05:50:09.044Z,53.56
2024-01-05T05:51:09.057Z,54.51
2024-01-05T05:52:09.023Z,54.60
2024-01-05T05:53:09.005Z,54.20
2024-01-05T05:54:09.045Z,52.87
2024-01-05T05:55:09.720Z,52.74
2024-01-05T05:56:08.966Z,55.92
2024-01-05T05:57:09.017Z,55.25
2024-01-05T05:58:08.940Z,54.71
2024-01-05T05:59:08.927Z,51.55
2024-01-05T06:00:09.976Z,53.81
2024-01-05T06:01:08.928Z,55.11
2024-01-05T06:02:08.903Z,54.60
2024-01-05T06:03:11.665Z,54.27
2024-01-05T06:04:09.135Z,54.32
2024-01-05T06:05:08.879Z,54.47
2024-01-05T06:06:08.929Z,53.25
2024-01-05T06:07:08.960Z,53.17
2024-01-05T06:08:08.855Z,56.59
2024-01-05T06:09:08.918Z,54.37
2024-01-05T06:10:08.847Z,55.36
2024-01-05T06:11:08.823Z,53.56
2024-01-05T06:12:08.869Z,54.36
2024-01-05T06:13:08.813Z,53.25
2024-01-05T06:14:08.805Z,53.71
2024-01-05T06:15:08.837Z,53.17
2024-01-05T06:16:08.803Z,53.89
2024-01-05T06:17:08.790Z,53.74
2024-01-05T06:18:08.977Z,55.37
2024-01-05T06:19:08.863Z,57.53
2024-01-05T06:20:08.768Z,53.90
2024-01-05T06:21:08.828Z,55.40
2024-01-05T06:22:08.752Z,53.90
2024-01-05T06:23:08.900Z,52.08
2024-01-05T06:24:08.878Z,52.83
2024-01-05T06:25:08.729Z,53.14
2024-01-05T06:26:08.723Z,54.27
2024-01-05T06:27:08.730Z,52.13
2024-01-05T06:28:08.718Z,53.89
2024-01-05T06:29:08.685Z,53.22
2024-01-05T06:30:08.802Z,51.50
2024-01-05T06:31:08.867Z,52.93
2024-01-05T06:32:08.702Z,51.93
2024-01-05T06:33:08.910Z,53.34
2024-01-05T06:34:08.683Z,54.05
2024-01-05T06:35:08.733Z,53.84
2024-01-05T06:36:08.718Z,55.47
2024-01-05T06:37:08.613Z,53.91
2024-01-05T06:38:08.587Z,53.21
2024-01-05T06:39:08.685Z,52.72
2024-01-05T06:40:08.608Z,51.69
2024-01-05T06:41:08.624Z,55.52
2024-01-05T06:42:09.292Z,52.54
2024-01-05T06:43:08.609Z,52.71
2024-01-05T06:44:08.519Z,52.62
2024-01-05T06:45:08.625Z,52.96
2024-01-05T06:46:08.505Z,55.12
2024-01-05T06:47:08.501Z,55.92
2024-01-05T06:48:08.675Z,52.65
2024-01-05T06:49:08.787Z,53.12
2024-01-05T06:50:08.617Z,56.56
2024-01-05T06:51:08.468Z,55.88
2024-01-05T06:52:08.750Z,56.28
2024-01-05T06:53:08.468Z,54.62
2024-01-05T06:54:08.524Z,53.45
2024-01-05T06:55:08.515Z,52.63
2024-01-05T06:56:08.565Z,54.01
2024-01-05T06:57:08.641Z,53.32
2024-01-05T06:58:08.491Z,56.80
2024-01-05T06:59:08.578Z,53.66
2024-01-05T07:00:08.651Z,54.55
2024-01-05T07:01:08.607Z,56.74
2024-01-05T07:02:08.496Z,52.65
2024-01-05T07:03:08.687Z,55.06
2024-01-05T07:04:08.561Z,53.03
2024-01-05T07:05:08.516Z,51.56
2024-01-05T07:06:08.500Z,51.91
2024-01-05T07:07:08.501Z,54.88
2024-01-05T07:08:08.493Z,51.81
2024-01-05T07:09:08.553Z,52.81
2024-01-05T07:10:08.520Z,52.90
2024-01-05T07:11:08.533Z,52.23
2024-01-05T07:12:08.561Z,55.26
2024-01-05T07:13:08.604Z,53.62
2024-01-05T07:14:08.613Z,55.18
2024-01-05T07:15:08.681Z,52.68
2024-01-05T07:16:08.616Z,55.76
2024-01-05T07:17:08.619Z,55.54
2024-01-05T07:18:08.830Z,54.98
2024-01-05T07:19:08.792Z,52.05
2024-01-05T07:20:08.661Z,53.56
2024-01-05T07:21:08.679Z,52.81
2024-01-05T07:22:08.639Z,55.39
2024-01-05T07:23:08.664Z,53.00
2024-01-05T07:24:08.703Z,54.59
2024-01-05T07:25:08.706Z,55.65
2024-01-05T07:26:08.753Z,52.49
2024-01-05T07:27:08.821Z,53.75
2024-01-05T07:28:08.820Z,55.00
2024-01-05T07:29:08.859Z,53.60
2024-01-05T07:30:08.958Z,54.33
2024-01-05T07:31:08.947Z,53.76
2024-01-05T07:32:08.925Z,54.02
2024-01-05T07:33:09.041Z,53.10
2024-01-05T07:34:09.071Z,53.85
2024-01-05T07:35:08.966Z,51.60
2024-01-05T07:36:08.978Z,55.65
2024-01-05T07:37:08.992Z,53.11
2024-01-05T07:38:09.013Z,53.54
2024-01-05T07:39:09.045Z,55.22
2024-01-05T07:40:09.056Z,54.82
2024-01-05T07:41:09.063Z,54.70
2024-01-05T07:42:09.109Z,54.48
2024-01-05T07:43:09.140Z,54.85
2024-01-05T07:44:09.143Z,53.20
2024-01-05T07:45:09.331Z,52.45
2024-01-05T07:46:09.180Z,52.47
2024-01-05T07:47:09.169Z,55.22
2024-01-05T07:48:09.354Z,53.38
2024-01-05T07:49:09.351Z,50.61
2024-01-05T07:50:09.217Z,52.32
2024-01-05T07:51:09.260Z,51.99
2024-01-05T07:52:09.249Z,52.90
2024-01-05T07:53:09.253Z,55.02
2024-01-05T07:54:09.386Z,50.27
2024-01-05T07:55:09.296Z,53.17
2024-01-05T07:56:09.301Z,53.11
2024-01-05T07:57:09.304Z,52.30
2024-01-05T07:58:09.383Z,57.35
2024-01-05T07:59:09.298Z,53.64
2024-01-05T08:00:09.353Z,53.81
2024-01-05T08:01:09.343Z,54.59
2024-01-05T08:02:09.340Z,55.75
2024-01-05T08:03:09.414Z,55.04
2024-01-05T08:04:09.588Z,53.47
2024-01-05T08:05:09.384Z,55.38
2024-01-05T08:06:09.442Z,53.76
2024-01-05T08:07:09.491Z,55.38
2024-01-05T08:08:09.421Z,56.71
2024-01-05T08:09:09.516Z,53.61
2024-01-05T08:10:09.428Z,54.14
2024-01-05T08:11:09.432Z,54.54
2024-01-05T08:12:09.446Z,52.23
2024-01-05T08:13:09.421Z,53.25
2024-01-05T08:14:09.428Z,54.62
2024-01-05T08:15:09.534Z,54.49
2024-01-05T08:16:09.460Z,52.78
2024-01-05T08:17:09.479Z,51.35
2024-01-05T08:18:09.513Z,55.69
2024-01-05T08:19:09.560Z,55.62
2024-01-05T08:20:09.429Z,55.30
2024-01-05T08:21:09.452Z,54.01
2024-01-05T08:22:09.445Z,56.62
2024-01-05T08:23:09.449Z,55.73
2024-01-05T08:24:09.491Z,56.78
2024-01-05T08:25:09.533Z,53.31
2024-01-05T08:26:09.464Z,55.13
2024-01-05T08:27:09.509Z,55.95
2024-01-05T08:28:09.436Z,52.90
2024-01-05T08:29:09.473Z,55.96
2024-01-05T08:30:09.606Z,53.55
2024-01-05T08:31:09.696Z,55.37
2024-01-05T08:32:09.538Z,53.83
2024-01-05T08:33:09.661Z,52.62
2024-01-05T08:34:09.754Z,54.79
2024-01-05T08:35:09.637Z,57.00
2024-01-05T08:36:09.679Z,53.99
2024-01-05T08:37:09.653Z,54.22
2024-01-05T08:38:09.701Z,54.21
2024-01-05T08:39:09.748Z,55.76
2024-01-05T08:40:09.745Z,56.33
2024-01-05T08:41:09.777Z,55.50
2024-01-05T08:42:10.099Z,56.60
2024-01-05T08:43:09.889Z,54.08
2024-01-05T08:44:09.913Z,55.85
2024-01-05T08:45:09.943Z,56.04
2024-01-05T08:46:09.917Z,56.85
2024-01-05T08:47:09.948Z,54.63
2024-01-05T08:48:10.131Z,56.14
2024-01-05T08:49:10.073Z,55.22
2024-01-05T08:50:10.138Z,56.10
2024-01-05T08:51:10.143Z,55.40
2024-01-05T08:52:10.348Z,53.10
2024-01-05T08:53:10.144Z,54.52
2024-01-05T08:54:10.172Z,53.26
2024-01-05T08:55:10.161Z,54.38
2024-01-05T08:56:10.184Z,53.58
2024-01-05T08:57:10.210Z,53.36
2024-01-05T08:58:10.285Z,51.61
2024-01-05T08:59:10.222Z,53.97
2024-01-05T09:00:10.272Z,53.38
2024-01-05T09:01:10.350Z,54.59
2024-01-05T09:02:10.607Z,52.74
2024-01-05T09:03:10.402Z,55.15
2024-01-05T09:04:10.300Z,55.48
2024-01-05T09:05:10.508Z,52.64
2024-01-05T09:06:10.400Z,53.45
2024-01-05T09:07:10.453Z,54.22
2024-01-05T09:08:10.460Z,55.91
2024-01-05T09:09:10.594Z,53.94
2024-01-05T09:10:10.530Z,56.11
2024-01-05T09:11:10.544Z,52.96
2024-01-05T09:12:10.859Z,54.60
2024-01-05T09:13:10.580Z,54.68
2024-01-05T09:14:10.612Z,53.47
2024-01-05T09:15:10.654Z,53.80
2024-01-05T09:16:10.600Z,53.74
2024-01-05T09:17:10.652Z,54.71
2024-01-05T09:18:10.846Z,55.91
2024-01-05T09:19:10.780Z,56.01
2024-01-05T09:20:10.797Z,50.49
2024-01-05T09:21:10.826Z,56.70
2024-01-05T09:22:11.138Z,55.18
2024-01-05T09:23:10.880Z,52.81
2024-01-05T09:24:10.932Z,55.91
2024-01-05T09:25:10.996Z,54.61
2024-01-05T09:26:10.999Z,55.92
2024-01-05T09:27:11.075Z,54.26
2024-01-05T09:28:11.080Z,55.17
2024-01-05T09:29:11.125Z,52.64
2024-01-05T09:30:11.222Z,55.27
2024-01-05T09:31:11.369Z,54.38
2024-01-05T09:32:11.672Z,55.54
2024-01-05T09:33:11.399Z,53.98
2024-01-05T09:34:11.462Z,54.22
2024-01-05T09:35:11.344Z,52.89
2024-01-05T09:36:11.462Z,54.96
2024-01-05T09:37:11.386Z,54.36
2024-01-05T09:38:11.442Z,53.53
2024-01-05T09:39:11.575Z,53.58
2024-01-05T09:40:11.596Z,53.48
2024-01-05T09:41:11.630Z,54.98
2024-01-05T09:42:11.968Z,55.21
2024-01-05T09:43:11.706Z,55.03
2024-01-05T09:44:11.738Z,55.06
2024-01-05T09:45:11.811Z,56.38
2024-01-05T09:46:11.840Z,57.20
2024-01-05T09:47:11.889Z,53.85
2024-01-05T09:48:12.023Z,58.14
2024-01-05T09:49:12.038Z,55.87
2024-01-05T09:50:12.003Z,56.13
2024-01-05T09:51:11.887Z,56.51
2024-01-05T09:52:12.205Z,56.15
2024-01-05T09:53:11.979Z,55.25
2024-01-05T09:54:12.014Z,55.41
2024-01-05T09:55:12.013Z,53.08
2024-01-05T09:56:12.083Z,56.48
2024-01-05T09:57:12.110Z,54.83
2024-01-05T09:58:12.070Z,53.85
2024-01-05T09:59:12.109Z,58.51
2024-01-05T10:00:12.156Z,56.29
2024-01-05T10:01:12.174Z,55.80
2024-01-05T10:02:12.145Z,55.82
2024-01-05T10:03:12.208Z,55.68
2024-01-05T10:04:12.267Z,55.69
2024-01-05T10:05:12.243Z,57.48
2024-01-05T10:06:12.369Z,55.78
2024-01-05T10:07:12.513Z,56.88
2024-01-05T10:08:12.344Z,54.89
2024-01-05T10:09:12.363Z,55.85
2024-01-05T10:10:12.353Z,55.29
2024-01-05T10:11:12.362Z,56.03
2024-01-05T10:12:12.410Z,57.17
2024-01-05T10:13:12.410Z,55.58
2024-01-05T10:14:12.423Z,55.94
2024-01-05T10:15:12.440Z,55.17
2024-01-05T10:16:12.423Z,55.72
2024-01-05T10:17:12.417Z,54.99
2024-01-05T10:18:12.518Z,55.75
2024-01-05T10:19:12.572Z,57.50
2024-01-05T10:20:12.489Z,54.67
2024-01-05T10:21:12.602Z,54.06
2024-01-05T10:22:12.532Z,56.38
2024-01-05T10:23:12.573Z,55.29
2024-01-05T10:24:12.618Z,57.25
2024-01-05T10:25:12.664Z,55.32
2024-01-05T10:26:12.736Z,53.97
2024-01-05T10:27:12.837Z,56.65
2024-01-05T10:28:12.789Z,54.17
2024-01-05T10:29:12.830Z,55.84
2024-01-05T10:30:12.989Z,55.19
2024-01-05T10:31:13.027Z,54.14
2024-01-05T10:32:12.976Z,54.03
2024-01-05T10:33:13.130Z,57.96
2024-01-05T10:34:13.157Z,57.03
2024-01-05T10:35:13.116Z,53.38
2024-01-05T10:36:13.200Z,53.86
2024-01-05T10:37:13.243Z,54.61
2024-01-05T10:38:13.305Z,56.20
2024-01-05T10:39:13.387Z,53.68
2024-01-05T10:40:13.416Z,52.84
2024-01-05T10:41:13.475Z,52.87
2024-01-05T10:42:13.541Z,53.49
2024-01-05T10:43:13.572Z,51.95
2024-01-05T10:44:13.641Z,53.19
2024-01-05T10:45:13.726Z,51.48
2024-01-05T10:46:13.749Z,52.69
2024-01-05T10:47:13.820Z,53.88
2024-01-05T10:48:13.979Z,51.83
2024-01-05T10:49:14.020Z,54.70
2024-01-05T10:50:14.058Z,53.49
2024-01-05T10:51:14.028Z,54.93
2024-01-05T10:52:14.058Z,54.60
2024-01-05T10:53:14.094Z,54.41
2024-01-05T10:54:14.234Z,51.87
2024-01-05T10:55:14.202Z,54.45
2024-01-05T10:56:14.266Z,55.13
2024-01-05T10:57:14.360Z,52.80
2024-01-05T10:58:14.334Z,56.51
2024-01-05T10:59:14.377Z,54.52
2024-01-05T11:00:14.561Z,52.76
2024-01-05T11:01:14.593Z,53.42
2024-01-05T11:02:14.524Z,52.80
2024-01-05T11:03:14.676Z,56.51
2024-01-05T11:04:14.701Z,54.95
2024-01-05T11:05:15.585Z,53.54
2024-01-05T11:06:14.785Z,53.51
2024-01-05T11:07:14.880Z,52.58
2024-01-05T11:08:14.805Z,53.54
2024-01-05T11:09:14.867Z,53.27
2024-01-05T11:10:14.918Z,51.51
2024-01-05T11:11:14.980Z,52.11
2024-01-05T11:12:15.025Z,55.58
2024-01-05T11:13:15.070Z,54.95
2024-01-05T11:14:15.194Z,54.31
2024-01-05T11:15:15.239Z,53.20
2024-01-05T11:16:15.223Z,51.25
2024-01-05T11:17:15.277Z,51.31
2024-01-05T11:18:15.370Z,52.54
2024-01-05T11:19:15.419Z,52.08
2024-01-05T11:20:15.408Z,54.05
2024-01-05T11:21:15.508Z,50.77
2024-01-05T11:22:15.506Z,54.42
2024-01-05T11:23:15.564Z,51.60
2024-01-05T11:24:17.626Z,53.66
2024-01-05T11:25:15.590Z,51.24
2024-01-05T11:26:15.563Z,53.90
2024-01-05T11:27:15.582Z,51.44
2024-01-05T11:28:15.540Z,52.14
2024-01-05T11:29:15.525Z,53.46
2024-01-05T11:30:15.595Z,50.78
2024-01-05T11:31:15.626Z,53.01
2024-01-05T11:32:15.510Z,53.21
2024-01-05T11:33:18.407Z,53.16
2024-01-05T11:34:16.586Z,53.31
2024-01-05T11:35:15.458Z,53.57
2024-01-05T11:36:15.432Z,54.20
2024-01-05T11:37:15.429Z,55.42
2024-01-05T11:38:15.401Z,55.19
2024-01-05T11:39:15.431Z,56.52
2024-01-05T11:40:15.378Z,56.52
2024-01-05T11:41:15.355Z,53.48
2024-01-05T11:42:15.336Z,54.54
2024-01-05T11:43:15.376Z,54.89
2024-01-05T11:44:15.418Z,52.51
2024-01-05T11:45:15.528Z,53.60
2024-01-05T11:46:18.744Z,53.47
2024-01-05T11:47:16.496Z,53.56
2024-01-05T11:48:15.705Z,54.01
2024-01-05T11:49:15.541Z,54.19
2024-01-05T11:50:15.485Z,54.55
2024-01-05T11:51:15.513Z,53.76
2024-01-05T11:52:15.450Z,53.98
2024-01-05T11:53:15.532Z,54.23
2024-01-05T11:54:15.422Z,54.57
2024-01-05T11:55:15.426Z,53.20
2024-01-05T11:56:15.472Z,53.18
2024-01-05T11:57:15.590Z,55.14
2024-01-05T11:58:15.557Z,55.27
2024-01-05T11:59:15.584Z,56.00
2024-01-05T12:00:15.761Z,54.89
2024-01-05T12:01:15.732Z,56.74
2024-01-05T12:02:15.748Z,55.37
2024-01-05T12:03:15.852Z,56.29
2024-01-05T12:04:16.005Z,55.22
2024-01-05T12:05:15.842Z,53.96
2024-01-05T12:06:16.086Z,55.25
2024-01-05T12:07:15.912Z,52.82
2024-01-05T12:08:15.972Z,53.93
2024-01-05T12:09:16.028Z,54.30
2024-01-05T12:10:16.001Z,53.75
2024-01-05T12:11:16.045Z,55.11
2024-01-05T12:12:16.127Z,54.73
2024-01-05T12:13:16.131Z,54.90
2024-01-05T12:14:16.181Z,53.60
2024-01-05T12:15:16.229Z,55.58
2024-01-05T12:16:16.258Z,53.84
2024-01-05T12:17:16.410Z,55.77
2024-01-05T12:18:23.299Z,53.62
2024-01-05T12:19:17.521Z,53.73
2024-01-05T12:20:16.333Z,53.84
2024-01-05T12:21:16.385Z,53.92
2024-01-05T12:22:16.297Z,54.41
2024-01-05T12:23:16.287Z,55.03
2024-01-05T12:24:16.284Z,55.08
2024-01-05T12:25:16.239Z,51.89
2024-01-05T12:26:16.211Z,53.51
2024-01-05T12:27:16.229Z,57.50
2024-01-05T12:28:16.239Z,53.81
2024-01-05T12:29:16.242Z,54.49
2024-01-05T12:30:16.407Z,56.05
2024-01-05T12:31:16.516Z,54.57
2024-01-05T12:32:16.365Z,55.44
2024-01-05T12:33:16.534Z,55.93
2024-01-05T12:34:16.508Z,53.09
2024-01-05T12:35:16.538Z,55.90
2024-01-05T12:36:16.579Z,53.87
2024-01-05T12:37:16.594Z,53.29
2024-01-05T12:38:16.614Z,51.34
2024-01-05T12:39:16.701Z,58.17
2024-01-05T12:40:16.674Z,53.39
2024-01-05T12:41:20.151Z,53.24
2024-01-05T12:42:16.786Z,53.42
2024-01-05T12:43:16.709Z,53.38
2024-01-05T12:44:16.998Z,53.27
2024-01-05T12:45:16.700Z,54.30
2024-01-05T12:46:16.671Z,56.16
2024-01-05T12:47:16.650Z,54.57
2024-01-05T12:48:16.804Z,55.66
2024-01-05T12:49:16.683Z,55.05
2024-01-05T12:50:16.594Z,55.90
2024-01-05T12:51:16.658Z,55.61
2024-01-05T12:52:16.583Z,54.60
2024-01-05T12:53:16.544Z,53.62